首页
METAR-TAF:

METAR-TAF

机场 :

小松飛行場

小松, 日本

纬度: 36-23N, 经度: 136-25E, 海拔: 6米

当前天气观测

该预报发布于44分钟前的15:00 UTC
风速4节,风向,在东北之间变化
温度 9°C
湿度 76%
气压 1020 hPa
能见度10公里或以上
少量云层高于800英尺
散云层高于1000英尺
多云层高于1500英尺

METAR: RJNK 081500Z 08004KT 040V100 9999 FEW008 SCT010 BKN015 09/05 Q1020

时间: 00:44 (15:44 UTC)

预报

该预报发布于4小时和36分钟前的11:08 UTC
预报有效从08日的 12点(UTC)到 09日的 18点(UTC)
风速10节,风向
能见度10公里或以上
少量云层高于1000英尺
多云层高于2000英尺
成为
从 08日的 14点(UTC)到 08日的 16点(UTC)
风速4节,风向东南
成为
从 09日的 00点(UTC)到 09日的 03点(UTC)
风速10节,风向西
成为
从 09日的 12点(UTC)到 09日的 15点(UTC)
风速10节,风向北转西北

TAF: RJNK 081108Z 0812/0918 36010KT 9999 FEW010 BKN020 BECMG 0814/0816 14004KT BECMG 0900/0903 26010KT BECMG 0912/0915 34010KT

超过4000个机场的气象观测和天气预报(METAR&TAF报告)。

可查询的气象台以黄色和红色小点在地图上表示。

将鼠标移到小点上方,可查看气象台名称。

然后点击查看天气观测和预报。

如需切换地图:点击带黑十字的绿色按钮放大地图;点击带横线的绿色按钮缩小地图;或者点击绿色箭头查看邻近地区的地图。


METAR-TAF: